Date,TemperatureHighF,TemperatureAvgF,TemperatureLowF,DewpointHighF,DewpointAvgF,DewpointLowF,HumidityHigh,HumidityAvg,HumidityLow,PressureMaxIn,PressureMinIn,WindSpeedMaxMPH,WindSpeedAvgMPH,GustSpeedMaxMPH,PrecipitationSumIn
2012-1-1,71.4,51.6,33.1,47.3,34.6,16.8,86,55,27,29.53,29.50,13,4,13,0.00
2012-1-2,53.1,43.9,30.0,17.5,9.7,-3.1,30,24,18,29.53,29.41,17,4,17,0.00
2012-1-3,42.3,30.9,22.5,6.9,-0.7,-5.9,32,25,21,29.65,29.47,14,3,14,0.00
2012-1-4,52.7,34.4,16.9,11.2,5.0,-2.4,54,30,18,29.62,29.50,10,2,10,0.00
2012-1-5,67.8,46.6,33.6,25.5,14.4,3.8,40,27,17,29.56,29.38,11,2,12,0.00
2012-1-6,68.2,48.7,33.3,27.3,20.2,15.0,57,33,17,29.53,29.38,10,2,10,0.00
2012-1-7,70.3,57.0,46.4,48.1,34.2,19.5,75,43,32,29.56,29.38,11,2,11,0.00
2012-1-8,66.7,54.2,41.7,52.3,42.8,37.1,88,68,36,29.65,29.50,9,1,9,0.00
2012-1-9,68.9,58.2,48.7,63.1,48.7,41.0,94,74,37,29.59,29.50,8,1,8,0.04
2012-1-10,69.3,60.5,53.4,57.0,48.2,40.5,93,67,36,29.50,29.32,7,1,8,0.00
2012-1-11,67.1,57.7,50.9,55.1,42.7,25.6,91,61,27,29.32,28.97,16,5,16,0.04
2012-1-12,65.1,53.2,36.5,35.6,28.7,8.1,53,39,25,29.18,29.03,22,6,22,0.00
2012-1-13,45.3,34.6,27.3,13.4,7.4,3.8,42,31,25,29.38,29.18,13,4,13,0.00
2012-1-14,54.0,38.7,27.0,14.9,9.1,5.0,39,29,20,29.56,29.35,13,4,13,0.00
2012-1-15,61.9,44.1,28.6,21.5,14.0,9.0,54,30,19,30.03,29.47,11,2,11,0.00
2012-1-16,59.0,44.1,28.2,32.3,19.6,10.9,55,38,24,30.03,29.83,10,2,10,0.00
2012-1-17,66.6,57.4,49.3,55.6,41.4,32.3,83,57,37,29.83,29.53,11,5,11,0.12
2012-1-18,61.2,50.8,32.2,58.5,28.4,9.6,93,45,22,29.59,29.44,9,2,9,0.20
2012-1-19,60.8,39.7,25.2,25.4,17.0,10.4,69,41,22,29.65,29.53,6,1,6,0.00
2012-1-20,48.6,42.7,34.0,27.6,23.2,18.0,69,47,30,29.59,29.56,4,0,4,0.00
2012-2-2,72.9,53.0,44.1,38.5,34.0,28.5,74,52,22,29.80,29.74,4,0,4,0.00
2012-2-3,67.6,52.2,38.5,36.1,27.3,23.3,75,41,22,29.91,29.77,8,1,10,0.00
2012-2-4,73.9,59.7,50.5,46.0,36.3,26.6,62,42,27,29.83,29.59,12,1,15,0.00
2012-2-5,76.5,63.4,51.6,56.4,43.6,34.5,86,52,25,29.62,29.53,9,3,10,0.00
2012-2-6,55.0,46.8,34.2,43.1,31.4,27.5,77,55,45,29.71,29.62,7,1,7,0.00
2012-2-7,62.2,44.9,33.8,49.6,32.3,26.8,92,66,27,29.68,29.59,5,0,5,0.00
2012-2-8,67.8,47.2,31.8,41.0,26.9,17.7,91,52,20,29.68,29.56,8,1,8,0.00
2012-2-9,56.1,40.9,27.0,33.8,21.2,16.6,77,48,26,29.77,29.65,7,1,7,0.00
2012-2-10,56.3,42.7,29.1,40.9,27.9,22.3,87,59,31,29.68,29.44,8,1,8,0.00
2012-2-11,50.4,40.9,26.1,31.4,14.7,-3.8,56,35,21,29.68,29.32,13,4,17,0.00
2012-2-12,50.9,33.1,18.1,11.7,1.3,-6.3,34,25,19,29.80,29.68,9,2,9,0.00
2012-2-13,50.5,28.0,17.1,15.5,5.5,0.0,54,39,21,29.74,29.68,6,1,6,0.00
2012-2-14,51.3,45.2,34.9,37.3,32.0,26.4,77,60,45,29.62,29.50,6,0,6,0.00
2012-2-15,68.9,51.2,32.5,41.6,32.6,26.0,81,53,24,29.74,29.59,6,0,6,0.00
2012-2-16,65.7,55.2,43.7,58.8,49.8,34.5,94,82,65,29.68,29.56,10,1,10,0.04
2012-2-17,50.5,47.1,44.2,46.3,43.8,41.6,91,88,85,29.59,29.53,3,0,3,0.00
2012-2-24,65.5,53.9,46.0,62.1,30.8,15.4,90,43,27,29.53,29.23,15,4,17,0.04
2012-2-25,58.6,45.5,33.6,20.1,15.2,10.8,56,30,19,29.77,29.53,13,3,13,0.00
2012-2-26,61.7,45.0,30.4,28.5,19.7,15.4,71,40,19,29.91,29.77,10,2,10,0.00
2012-2-27,64.2,52.0,45.7,48.3,39.8,26.4,87,65,37,29.91,29.83,6,0,6,0.16
2012-2-28,69.3,55.0,41.5,53.6,41.8,33.0,92,65,29,29.88,29.80,6,0,6,0.00
2012-2-29,70.7,63.6,57.2,61.1,51.7,46.4,91,67,42,29.80,29.50,12,4,12,0.04
2012-3-1,76.1,67.9,61.0,61.9,53.0,40.5,90,63,28,29.53,29.44,12,5,12,0.24
2012-3-4,57.9,55.2,51.4,20.7,17.0,13.9,27,22,19,29.47,29.38,20,5,20,0.00
2012-4-3,85.5,76.5,63.0,57.3,50.9,45.8,81,44,26,29.53,29.50,9,1,9,0.04
2012-4-4,85.6,70.7,56.7,65.5,52.2,41.9,93,58,22,29.50,29.32,10,1,10,0.00
2012-4-5,81.5,70.9,61.2,57.8,46.5,34.2,80,45,20,29.32,29.23,10,2,10,0.00
2012-4-6,68.9,59.8,53.2,53.0,42.8,29.2,77,57,23,29.50,29.26,8,2,8,0.00
2012-5-4,88.7,81.4,66.4,54.0,44.8,40.6,64,29,20,29.71,29.56,8,1,9,0.00
2012-5-5,93.2,78.6,61.5,66.8,48.5,39.0,91,43,17,29.65,29.44,12,2,14,0.00
2012-5-6,91.2,77.4,60.4,64.2,46.6,39.4,89,39,18,29.59,29.47,8,1,8,0.00
2012-5-7,82.4,70.8,63.1,64.9,54.5,45.8,85,59,31,29.59,29.47,7,1,7,0.04
2012-5-8,86.2,71.9,64.9,65.9,57.2,44.3,93,65,24,29.56,29.41,8,1,8,0.12
2012-5-9,80.4,68.3,58.3,65.1,58.9,46.3,94,75,31,29.47,29.29,10,1,10,0.24
2012-5-10,79.0,64.4,49.8,55.8,39.3,29.3,93,49,17,29.53,29.35,8,1,8,0.00
2012-5-11,83.1,65.1,46.9,52.6,38.5,33.4,94,44,19,29.77,29.50,7,1,8,0.00
2012-5-12,81.0,68.7,57.4,59.1,43.9,34.3,89,46,20,29.85,29.74,10,1,10,0.00
2012-5-13,69.6,66.0,62.6,65.3,54.9,36.6,94,70,33,29.80,29.62,6,1,6,0.31
2012-5-14,82.4,72.1,66.7,65.2,57.2,43.5,94,65,26,29.62,29.47,10,3,11,0.43
2012-5-15,86.9,73.7,61.5,67.9,50.7,38.3,93,52,19,29.56,29.47,9,2,9,0.00
2012-5-16,86.7,72.3,59.4,63.5,49.5,38.6,91,51,19,29.56,29.47,8,1,8,0.00
2012-5-17,86.2,68.4,59.2,63.1,53.8,40.4,93,67,20,29.59,29.47,5,1,8,0.20
2012-5-18,80.4,66.9,57.2,64.7,49.6,36.9,95,61,24,29.65,29.53,6,1,8,0.00
2012-5-19,84.7,68.9,55.9,57.6,41.9,30.9,92,46,16,29.71,29.62,8,1,8,0.00
2012-5-20,85.3,67.9,50.0,55.7,40.7,35.5,91,44,18,29.71,29.59,6,1,6,0.00
2012-5-21,88.9,71.7,52.5,60.0,43.8,37.5,89,45,18,29.62,29.47,10,1,10,0.00
2012-5-22,87.3,73.5,60.1,61.0,45.4,34.9,90,43,18,29.53,29.38,14,2,14,0.00
2012-5-23,87.8,70.7,54.5,62.0,43.8,36.5,92,45,18,29.50,29.38,10,2,10,0.00
2012-5-24,92.3,75.1,56.3,63.8,46.6,39.2,93,45,17,29.62,29.47,9,2,9,0.00
2012-5-25,97.3,80.5,62.2,63.0,46.3,39.1,83,36,16,29.71,29.62,7,1,7,0.00
2012-5-26,98.8,80.7,62.4,62.8,47.8,39.0,84,39,16,29.74,29.59,6,1,6,0.00
2012-5-27,92.8,79.9,65.1,60.4,47.9,39.9,82,38,17,29.68,29.56,8,2,10,0.00
2012-5-28,90.9,75.4,69.1,69.2,59.5,46.2,93,62,22,29.65,29.50,10,1,10,0.39
2012-5-29,80.6,72.9,67.3,69.8,63.7,53.3,93,75,41,29.56,29.38,4,0,6,0.47
2012-5-30,93.0,76.0,65.1,70.3,54.1,38.8,94,57,17,29.47,29.35,5,1,8,0.00
2012-5-31,94.1,75.2,59.0,68.5,51.9,36.1,93,56,14,29.53,29.35,10,2,10,1.42
2012-6-1,84.4,73.1,63.5,65.0,55.9,44.9,94,62,26,29.50,29.35,13,3,13,0.16
2012-6-2,80.6,67.3,54.3,61.2,40.9,27.4,88,46,17,29.53,29.41,10,2,14,0.00
2012-6-3,85.5,69.0,50.7,58.7,44.2,37.1,90,47,20,29.59,29.47,10,2,10,0.00
2012-6-4,84.6,73.4,66.6,64.5,54.3,46.5,88,54,27,29.50,29.32,10,2,11,0.08
2012-6-5,77.2,68.9,61.0,64.5,52.8,43.7,92,59,32,29.44,29.32,6,1,6,0.00
2012-6-6,78.8,67.8,59.4,61.8,53.6,44.3,92,65,31,29.56,29.38,6,1,6,0.00
2012-6-7,86.0,70.4,54.9,64.9,46.9,37.2,95,53,19,29.65,29.53,6,1,6,0.00
2012-6-8,88.5,73.1,56.3,64.3,46.5,37.5,94,48,18,29.65,29.56,6,1,8,0.00
2012-6-9,88.7,74.9,58.1,63.7,44.3,36.0,91,40,18,29.68,29.59,8,2,8,0.00
2012-6-10,81.5,72.9,68.5,68.9,58.5,42.1,93,64,32,29.71,29.62,6,1,7,0.43
2012-6-11,77.9,71.9,67.8,69.4,64.2,54.5,94,79,46,29.71,29.59,10,3,13,0.67
2012-6-12,89.1,77.2,68.9,69.5,61.1,47.5,94,64,25,29.65,29.47,8,3,11,0.12
2012-6-13,92.7,78.6,64.4,70.9,57.3,44.9,94,57,20,29.59,29.50,8,1,8,0.00
2012-6-14,87.8,76.1,65.5,68.9,54.3,43.8,94,53,22,29.74,29.56,5,1,9,0.00
2012-6-15,87.1,73.7,62.6,62.8,51.1,38.7,91,52,20,29.80,29.65,6,1,8,0.00
2012-6-16,85.5,70.9,55.2,61.6,46.5,37.1,94,50,20,29.83,29.71,5,1,6,0.00
2012-6-17,87.1,71.3,53.2,62.7,45.8,37.5,94,50,19,29.74,29.59,9,1,9,0.00
2012-6-18,88.7,73.5,59.4,62.5,48.3,38.5,92,49,18,29.71,29.62,7,1,8,0.00
2012-6-19,91.8,74.1,59.0,65.2,47.9,38.4,90,47,17,29.77,29.68,6,1,6,0.00
2012-6-20,92.7,76.4,60.4,67.1,50.1,41.8,91,47,19,29.77,29.65,6,1,6,0.00
2012-6-21,86.9,73.9,63.7,67.6,55.4,46.4,91,58,25,29.71,29.53,6,1,7,0.00
2012-6-22,93.9,77.1,61.9,68.1,50.9,40.4,95,50,16,29.59,29.44,8,2,9,0.00
2012-6-23,95.5,80.5,65.1,67.6,49.4,41.1,87,39,17,29.59,29.50,9,2,9,0.00
2012-6-24,93.9,82.7,70.3,70.7,53.1,41.7,88,41,18,29.62,29.47,8,2,8,0.00
2012-6-25,93.2,79.7,67.5,68.8,55.0,43.5,92,48,19,29.53,29.32,8,1,9,0.00
2012-6-26,91.2,78.5,63.7,69.6,49.3,33.8,94,45,17,29.44,29.32,8,2,11,0.04
2012-6-27,92.3,74.3,53.2,56.2,39.7,31.7,93,35,14,29.62,29.44,6,1,8,0.00
2012-6-28,102.0,80.2,58.5,51.1,42.0,36.0,64,32,12,29.65,29.53,10,2,12,0.00
2012-6-29,109.4,89.7,73.9,52.3,44.4,36.3,46,24,10,29.59,29.38,7,2,8,0.00
2012-6-30,109.0,89.2,69.3,54.6,46.3,38.8,57,27,11,29.53,29.38,6,1,9,0.00
2012-7-1,109.6,85.7,70.0,64.0,50.5,36.7,79,35,11,29.65,29.50,17,1,26,0.39
2012-7-2,99.1,85.0,69.4,69.4,53.0,42.8,94,42,16,29.71,29.56,9,2,9,0.39
2012-7-3,98.1,79.6,70.2,74.3,57.9,40.0,92,54,17,29.65,29.53,21,1,22,0.16
2012-7-4,96.1,81.8,67.6,69.1,54.4,42.0,94,47,17,29.65,29.53,9,2,9,0.00
2012-7-5,99.5,85.5,72.3,63.0,51.9,42.0,70,36,16,29.65,29.47,8,2,8,0.00
2012-7-6,98.2,79.5,70.2,70.1,56.8,43.5,91,51,17,29.65,29.50,8,2,10,0.39
2012-7-7,95.9,82.8,68.5,72.8,55.5,43.4,94,49,17,29.65,29.56,9,2,11,0.00
2012-7-8,98.6,86.1,71.6,68.4,51.5,41.9,86,35,16,29.65,29.50,11,3,11,0.39
2012-7-9,99.9,85.1,75.7,58.5,51.2,43.4,54,34,16,29.62,29.47,10,3,13,0.39
2012-7-10,96.4,80.5,69.8,70.1,59.2,43.4,94,58,17,29.68,29.47,9,2,9,0.98
2012-7-11,92.3,78.0,69.8,72.4,60.3,45.8,94,62,21,29.71,29.59,10,1,13,0.47
2012-7-12,88.0,75.9,70.0,71.2,62.6,51.4,93,68,29,29.74,29.62,6,1,6,0.04
2012-7-13,90.5,76.8,71.4,74.2,67.4,51.5,93,77,28,29.77,29.65,8,1,8,0.51
2012-7-14,92.5,79.4,70.3,76.5,63.2,47.7,94,65,22,29.80,29.68,6,1,8,0.39
2012-7-15,94.5,80.7,68.7,72.2,57.0,43.1,94,54,18,29.83,29.68,6,1,6,0.39
2012-7-16,92.7,80.0,68.4,73.2,58.3,45.3,94,54,20,29.77,29.56,7,1,10,0.12
2012-7-17,94.6,76.3,68.0,69.4,60.1,45.9,94,63,19,29.62,29.53,10,1,10,0.39
2012-7-18,94.6,78.4,69.4,67.1,59.8,49.0,90,57,23,29.68,29.53,9,2,9,0.39
2012-7-19,93.0,80.0,69.3,70.1,58.6,46.5,95,55,21,29.71,29.56,10,3,10,0.39
2012-7-20,90.5,80.0,72.9,69.9,60.0,47.1,90,55,23,29.65,29.56,11,4,13,0.39
2012-7-21,85.5,77.9,72.9,70.4,63.1,54.6,89,62,35,29.74,29.62,8,3,9,0.39
2012-7-22,97.3,82.4,69.3,72.3,56.6,43.3,93,51,17,29.83,29.71,13,2,13,0.39
2012-7-23,96.3,81.0,70.7,71.4,61.6,45.6,92,59,19,29.83,29.68,8,1,10,0.55
2012-7-24,97.5,84.0,73.9,72.4,57.9,43.7,90,48,17,29.74,29.53,8,2,10,0.39
2012-7-25,99.0,85.6,72.9,71.2,56.1,43.3,90,45,16,29.62,29.53,8,1,8,0.39
2012-7-26,100.8,87.5,73.8,74.1,56.0,43.4,89,43,15,29.59,29.47,9,2,10,0.39
2012-7-27,95.5,83.6,75.6,58.2,53.1,43.4,54,36,17,29.62,29.50,10,3,12,0.39
2012-7-28,99.9,83.9,73.4,65.9,52.6,42.0,76,39,15,29.65,29.53,8,2,8,0.39
2012-7-29,97.7,84.6,72.3,66.0,51.0,39.1,80,36,16,29.62,29.50,8,1,11,0.39
2012-7-30,96.8,82.5,69.1,72.0,55.8,41.8,94,48,16,29.62,29.50,6,1,8,0.00
2012-7-31,82.9,74.1,69.3,72.3,66.0,54.9,93,77,42,29.62,29.47,6,0,6,0.51
2012-8-1,96.4,80.6,70.7,74.5,60.5,43.4,94,60,17,29.59,29.44,6,1,6,0.08
2012-8-2,99.5,82.8,71.6,76.3,60.7,44.7,94,57,16,29.59,29.44,13,2,17,0.31
2012-8-3,93.0,78.4,68.2,72.5,60.5,45.0,95,63,20,29.68,29.53,10,2,10,0.39
2012-8-4,91.6,77.3,70.2,72.2,63.7,45.9,94,69,21,29.80,29.65,8,1,10,0.43
2012-8-5,88.5,76.8,69.3,76.1,63.6,50.5,94,69,29,29.83,29.68,11,1,14,0.04
2012-8-6,87.1,76.7,72.3,73.1,67.5,53.2,94,77,32,29.77,29.62,8,1,8,0.24
2012-8-7,88.3,77.7,72.3,74.2,66.5,54.2,94,73,32,29.68,29.56,9,1,9,0.39
2012-8-8,91.2,79.0,71.6,72.5,63.2,51.1,94,65,26,29.65,29.53,6,1,8,0.39
2012-8-9,91.0,77.7,71.1,73.1,65.4,51.1,95,73,27,29.65,29.44,11,2,17,0.75
2012-8-10,83.1,76.4,71.2,71.1,63.5,52.0,95,68,35,29.53,29.44,13,3,13,0.39
2012-8-11,82.8,76.0,71.6,74.8,66.6,54.3,95,75,42,29.59,29.47,8,2,9,0.47
2012-8-12,89.8,75.8,63.5,73.0,52.5,34.5,95,55,15,29.65,29.56,10,2,10,0.39
2012-8-13,88.7,73.1,57.2,68.1,49.5,37.8,96,54,18,29.65,29.56,8,1,10,0.39
2012-8-14,88.2,74.1,64.8,69.1,58.9,44.5,94,65,23,29.62,29.50,12,2,12,0.04
2012-8-15,89.1,77.1,69.8,71.9,61.4,47.3,95,65,24,29.59,29.50,9,1,11,0.39
2012-8-16,93.6,79.4,68.4,71.0,58.0,42.7,94,58,18,29.65,29.53,8,1,8,0.39
2012-8-17,93.0,79.7,69.6,70.0,57.6,42.5,94,55,19,29.65,29.47,9,2,10,0.39
2012-8-18,87.8,76.3,65.1,68.7,57.7,44.4,94,59,23,29.56,29.44,6,1,8,0.39
2012-8-19,82.6,75.1,69.6,69.8,60.7,49.1,95,65,32,29.53,29.41,8,1,9,0.35
2012-8-20,84.0,74.5,69.1,69.1,60.7,47.6,95,68,30,29.59,29.47,4,0,6,0.04
2012-8-21,89.1,74.6,65.1,69.8,58.1,43.3,95,65,21,29.65,29.53,6,0,8,0.39
2012-8-22,88.2,75.5,65.7,70.5,57.1,44.4,95,60,23,29.68,29.62,4,0,6,0.39
2012-8-23,88.0,75.8,64.6,69.4,57.0,0.0,96,59,25,29.74,29.65,5,1,7,0.39
2012-8-24,90.3,75.3,63.7,70.1,53.5,40.5,95,56,19,29.74,29.65,6,1,8,0.39
2012-8-25,91.8,73.3,59.5,68.5,52.2,38.5,96,58,17,29.74,29.68,6,1,6,0.00
2012-8-26,93.4,75.0,60.3,69.0,51.3,39.1,96,54,17,29.77,29.65,6,1,8,0.39
2012-8-27,92.8,75.5,59.5,69.3,56.1,44.4,96,60,19,29.71,29.56,8,1,8,0.00
2012-8-28,80.1,75.5,72.3,75.8,72.2,69.1,94,90,77,29.65,29.53,3,0,4,0.47
2012-8-29,89.8,78.7,71.4,74.2,64.0,51.9,94,67,29,29.65,29.53,10,1,10,0.39
2012-8-30,84.7,75.5,71.1,72.9,68.1,56.3,94,81,40,29.77,29.59,5,0,6,0.39
2012-8-31,92.7,79.7,70.9,75.7,63.8,48.3,94,66,23,29.83,29.71,7,1,7,0.39
2012-9-1,94.6,80.3,69.3,75.9,60.4,43.4,95,60,18,29.80,29.65,8,1,8,0.39
2012-9-2,93.7,80.0,70.2,76.0,60.8,44.4,95,59,20,29.71,29.50,11,2,14,0.39
2012-9-3,90.0,78.1,72.0,73.6,65.2,50.8,95,71,27,29.59,29.44,11,3,13,0.24
2012-9-4,88.0,76.8,71.1,71.1,64.0,50.1,95,70,28,29.53,29.41,11,2,13,0.39
2012-9-5,87.1,78.0,72.1,70.2,59.8,48.2,92,59,27,29.53,29.41,8,2,10,0.39
2012-9-6,89.6,78.1,71.8,70.9,62.1,50.8,94,64,28,29.50,29.35,9,3,9,0.39
2012-9-7,95.0,80.5,70.5,73.4,61.0,44.6,95,60,18,17.72,17.72,8,1,10,0.39
2012-9-8,90.3,77.0,72.1,71.2,63.9,48.2,95,70,24,17.72,17.72,11,3,13,0.43
2012-9-9,84.9,73.6,60.1,70.9,51.0,36.0,95,56,19,17.72,17.72,6,1,8,0.39
2012-9-10,87.3,69.9,54.9,64.2,46.2,35.0,96,54,18,17.72,17.72,6,1,6,0.39
2012-9-11,85.1,68.6,53.2,64.4,46.2,35.6,96,55,19,17.72,17.72,6,1,8,0.39
2012-9-12,86.2,69.4,55.0,65.5,45.7,34.4,96,53,18,17.72,17.72,7,1,7,0.39
2012-9-13,83.5,68.6,53.2,61.3,48.6,42.0,95,55,25,17.72,17.72,5,1,6,0.39
2012-9-14,88.7,74.7,63.1,61.8,47.8,37.4,88,45,18,17.72,17.72,5,1,8,0.39
2012-9-15,90.7,73.3,58.5,66.9,48.9,37.6,95,52,18,17.72,17.72,6,1,7,0.39
2012-9-16,88.7,73.9,62.8,66.5,51.2,38.1,93,52,18,17.72,17.72,8,1,8,0.39
2012-9-17,88.7,76.3,67.3,70.8,55.8,41.2,96,55,20,17.72,17.72,10,3,13,0.39
2012-9-18,79.5,72.6,67.1,71.3,64.6,51.2,95,78,40,17.72,17.72,14,5,14,0.59
2012-9-19,84.7,70.2,59.4,64.7,51.8,38.4,96,61,21,17.72,17.72,5,1,7,0.39
2012-9-20,86.0,69.2,59.4,61.9,51.1,38.3,94,61,20,17.72,17.72,5,1,8,0.39
2012-9-21,85.6,70.5,57.6,67.4,51.4,39.1,96,61,20,17.72,17.72,6,1,6,0.39
2012-9-22,87.6,74.9,62.4,67.2,51.7,39.0,96,53,19,17.72,17.72,9,3,232,0.39
2012-9-23,85.1,71.1,55.8,51.1,39.3,28.9,81,37,14,17.72,17.72,9,1,9,0.39
2012-9-24,81.7,63.0,47.7,48.0,34.0,26.0,77,37,20,17.72,17.72,8,1,8,0.00
2012-9-25,83.5,64.7,48.6,62.2,43.7,34.4,96,56,19,17.72,17.72,6,1,7,0.39
2012-9-26,88.9,67.6,49.5,63.8,43.7,32.9,94,51,18,17.72,17.72,7,1,10,0.39
2012-9-27,90.5,71.7,57.6,68.6,50.9,36.0,95,58,18,17.72,17.72,6,0,8,0.39
2012-9-28,89.2,73.1,61.0,67.7,53.0,39.0,94,57,19,17.72,17.72,8,1,8,0.39
2012-9-29,87.3,73.0,64.0,70.0,54.6,41.0,95,60,20,17.72,17.72,8,1,8,0.00
2012-9-30,67.8,65.8,64.0,63.2,61.7,60.7,95,87,80,17.72,17.72,0,0,3,0.00
2012-10-7,83.1,77.2,58.8,63.1,40.5,38.4,95,28,21,17.72,0.00,10,3,12,0.35
2012-10-8,65.5,59.3,54.5,50.7,38.0,34.7,72,46,33,29.71,0.00,6,2,8,0.35
2012-10-9,74.5,58.5,48.0,46.4,38.3,30.8,80,52,22,29.71,29.65,8,1,8,0.00
2012-10-10,79.0,57.1,44.8,52.9,42.8,34.1,91,65,21,29.71,29.62,8,1,13,0.00
2012-10-11,80.8,58.8,42.8,56.7,38.7,29.1,96,57,19,29.85,29.71,6,1,8,0.00
2012-10-12,85.5,67.2,50.2,50.2,42.6,33.9,86,49,19,29.85,29.71,10,1,10,0.00
2012-10-13,79.5,64.1,55.6,52.8,42.8,32.3,89,53,21,29.88,29.83,6,1,6,0.00
2012-10-14,81.1,66.3,50.7,61.4,48.6,40.5,93,59,26,29.85,29.65,6,1,6,0.00
2012-10-15,81.0,67.6,51.8,66.4,51.4,28.5,96,64,20,29.65,29.41,11,3,15,0.04
2012-10-16,77.9,57.6,40.1,52.3,34.0,24.6,91,48,15,29.53,29.44,6,0,6,0.00
2012-10-17,78.1,60.2,47.8,52.0,36.4,25.6,90,50,18,29.53,29.41,8,1,12,0.00
2012-10-18,73.8,54.7,47.5,59.3,45.7,35.2,94,74,38,29.44,29.35,6,1,6,0.00
2012-12-3,74.7,57.6,45.5,61.7,41.9,32.0,97,64,22,29.85,29.80,7,1,9,0.00
2012-12-4,75.0,61.7,50.0,59.9,47.4,33.7,96,65,23,29.88,29.77,8,2,10,0.00
2012-12-5,74.3,62.7,55.6,54.9,43.7,32.9,92,55,23,29.77,29.68,8,2,10,0.00
2012-12-6,67.8,58.5,50.2,52.2,33.8,26.1,76,41,23,29.74,29.68,6,1,8,0.00
2012-12-7,68.7,53.3,44.4,40.8,30.6,23.8,84,44,25,29.68,29.56,5,1,5,0.00
2012-12-8,70.9,56.1,43.7,52.0,42.5,34.3,95,66,26,29.62,29.53,6,1,6,0.00
2012-12-9,68.9,60.7,53.1,60.8,51.4,43.9,98,74,41,29.68,29.59,8,2,8,0.00
2012-12-10,71.2,61.2,54.0,60.7,53.1,39.1,98,79,32,29.59,29.35,13,3,14,0.00
2012-12-11,61.2,52.0,42.8,60.3,34.9,21.3,100,56,26,29.71,29.35,8,1,10,0.00
2012-12-12,47.2,43.7,41.7,45.4,42.6,37.4,100,96,74,29.83,29.62,4,0,7,0.00
2012-12-13,59.4,44.4,31.6,46.3,39.8,31.6,100,86,50,29.94,29.77,5,0,9,0.00
2012-12-14,64.5,41.1,27.2,47.4,35.0,27.2,100,84,43,29.91,29.65,6,0,6,0.00
2012-12-15,59.6,44.5,32.3,48.0,40.9,32.3,100,89,58,29.80,29.59,5,0,5,0.39
2012-12-16,60.5,54.6,46.5,60.5,54.6,46.5,100,100,100,29.59,29.44,5,1,5,0.47
2012-12-17,58.0,55.3,52.1,58.0,55.3,52.1,100,100,100,29.47,29.23,9,2,11,0.24
2012-12-18,63.8,52.3,34.4,57.1,45.8,34.4,100,82,41,29.50,29.26,10,2,14,0.00
2012-12-19,69.7,49.0,30.6,51.8,42.7,30.6,100,83,51,29.62,29.47,9,1,9,0.00
2012-12-20,64.5,49.2,33.0,62.1,47.5,33.0,100,94,69,29.59,29.18,16,4,16,0.00
2012-12-21,49.2,41.6,34.8,34.7,28.6,21.9,71,60,48,29.53,29.32,23,6,23,0.00
2012-12-22,58.4,42.9,31.4,33.6,24.7,18.1,58,49,39,29.68,29.53,13,4,13,0.00
2012-12-23,60.3,45.5,29.6,40.6,30.9,18.8,76,57,44,29.68,29.59,9,2,11,0.00
2012-12-24,52.4,48.2,42.7,52.4,44.8,36.0,100,89,67,29.59,29.38,8,3,8,0.00
2012-12-25,52.1,50.1,48.8,52.1,50.1,48.8,100,100,100,29.56,29.32,6,0,6,0.00
2012-12-26,59.4,48.7,37.1,59.4,46.0,34.7,100,91,67,29.35,29.09,14,6,15,0.00
2012-12-27,52.4,38.4,27.6,39.3,34.7,27.6,100,88,60,29.53,29.35,13,3,13,2.48
2012-12-28,53.0,38.8,26.9,45.8,36.7,26.9,100,93,64,29.59,29.41,4,0,4,0.00
2012-12-29,47.7,41.1,33.5,47.7,40.8,33.5,100,99,90,29.62,29.26,13,3,13,0.63
2012-12-30,55.8,37.6,24.3,37.8,31.4,24.3,100,82,46,29.91,29.62,8,1,8,0.00
2012-12-31,58.9,42.4,22.9,51.6,37.3,22.9,100,85,51,29.85,29.68,8,2,10,0.00
2013-1-1,60.2,52.3,44.1,60.0,52.2,44.1,100,100,94,29.68,29.44,6,1,6,0.08